sensor_id;sensor_type;location;lat;lon;timestamp;P1;durP1;ratioP1;P2;durP2;ratioP2
60344;SDS011;46188;52.324;8.032;2024-03-22T00:02:25;24.33;;;17.33;;
60344;SDS011;46188;52.324;8.032;2024-03-22T00:04:50;22.95;;;16.55;;
60344;SDS011;46188;52.324;8.032;2024-03-22T00:07:15;22.92;;;16.15;;
60344;SDS011;46188;52.324;8.032;2024-03-22T00:09:40;23.15;;;16.73;;
60344;SDS011;46188;52.324;8.032;2024-03-22T00:12:06;22.55;;;16.25;;
60344;SDS011;46188;52.324;8.032;2024-03-22T00:14:31;24.60;;;15.57;;
60344;SDS011;46188;52.324;8.032;2024-03-22T00:16:56;25.77;;;16.65;;
60344;SDS011;46188;52.324;8.032;2024-03-22T00:19:22;25.05;;;16.15;;
60344;SDS011;46188;52.324;8.032;2024-03-22T00:21:47;26.85;;;17.20;;
60344;SDS011;46188;52.324;8.032;2024-03-22T00:24:12;25.02;;;17.92;;
60344;SDS011;46188;52.324;8.032;2024-03-22T00:26:37;24.95;;;18.13;;
60344;SDS011;46188;52.324;8.032;2024-03-22T00:29:03;28.75;;;17.70;;
60344;SDS011;46188;52.324;8.032;2024-03-22T00:31:28;28.58;;;17.77;;
60344;SDS011;46188;52.324;8.032;2024-03-22T00:33:53;28.52;;;19.00;;
60344;SDS011;46188;52.324;8.032;2024-03-22T00:36:19;30.38;;;18.95;;
60344;SDS011;46188;52.324;8.032;2024-03-22T00:38:44;25.30;;;17.90;;
60344;SDS011;46188;52.324;8.032;2024-03-22T00:41:09;23.95;;;17.40;;
60344;SDS011;46188;52.324;8.032;2024-03-22T00:43:35;25.02;;;18.02;;
60344;SDS011;46188;52.324;8.032;2024-03-22T00:46:00;27.63;;;19.58;;
60344;SDS011;46188;52.324;8.032;2024-03-22T00:48:27;25.85;;;18.20;;
60344;SDS011;46188;52.324;8.032;2024-03-22T00:50:52;28.23;;;18.95;;
60344;SDS011;46188;52.324;8.032;2024-03-22T00:53:18;27.65;;;17.10;;
60344;SDS011;46188;52.324;8.032;2024-03-22T00:55:43;30.45;;;18.92;;
60344;SDS011;46188;52.324;8.032;2024-03-22T00:58:08;30.13;;;18.67;;
60344;SDS011;46188;52.324;8.032;2024-03-22T01:00:33;31.92;;;20.02;;
60344;SDS011;46188;52.324;8.032;2024-03-22T01:02:59;26.92;;;19.33;;
60344;SDS011;46188;52.324;8.032;2024-03-22T01:05:24;27.85;;;18.77;;
60344;SDS011;46188;52.324;8.032;2024-03-22T01:07:51;30.95;;;18.65;;
60344;SDS011;46188;52.324;8.032;2024-03-22T01:10:16;30.55;;;19.10;;
60344;SDS011;46188;52.324;8.032;2024-03-22T01:12:41;29.65;;;19.23;;
60344;SDS011;46188;52.324;8.032;2024-03-22T01:15:07;28.65;;;18.98;;
60344;SDS011;46188;52.324;8.032;2024-03-22T01:17:33;34.17;;;19.25;;
60344;SDS011;46188;52.324;8.032;2024-03-22T01:19:58;29.25;;;19.70;;
60344;SDS011;46188;52.324;8.032;2024-03-22T01:22:24;29.42;;;20.25;;
60344;SDS011;46188;52.324;8.032;2024-03-22T01:24:49;30.08;;;20.00;;
60344;SDS011;46188;52.324;8.032;2024-03-22T01:27:14;33.05;;;20.20;;
60344;SDS011;46188;52.324;8.032;2024-03-22T01:29:39;27.83;;;19.40;;
60344;SDS011;46188;52.324;8.032;2024-03-22T01:32:05;29.52;;;19.70;;
60344;SDS011;46188;52.324;8.032;2024-03-22T01:34:30;31.58;;;19.90;;
60344;SDS011;46188;52.324;8.032;2024-03-22T01:36:55;31.52;;;19.83;;
60344;SDS011;46188;52.324;8.032;2024-03-22T01:39:21;30.15;;;19.30;;
60344;SDS011;46188;52.324;8.032;2024-03-22T01:41:47;30.60;;;20.40;;
60344;SDS011;46188;52.324;8.032;2024-03-22T01:44:15;32.97;;;20.50;;
60344;SDS011;46188;52.324;8.032;2024-03-22T01:46:42;31.60;;;19.85;;
60344;SDS011;46188;52.324;8.032;2024-03-22T01:49:09;31.65;;;19.80;;
60344;SDS011;46188;52.324;8.032;2024-03-22T01:51:36;30.23;;;19.23;;
60344;SDS011;46188;52.324;8.032;2024-03-22T01:54:02;31.23;;;19.10;;
60344;SDS011;46188;52.324;8.032;2024-03-22T01:56:29;28.40;;;19.10;;
60344;SDS011;46188;52.324;8.032;2024-03-22T01:58:55;32.22;;;20.00;;
60344;SDS011;46188;52.324;8.032;2024-03-22T02:01:21;30.65;;;19.17;;
60344;SDS011;46188;52.324;8.032;2024-03-22T02:03:47;32.25;;;19.40;;
60344;SDS011;46188;52.324;8.032;2024-03-22T02:06:12;32.15;;;20.27;;
60344;SDS011;46188;52.324;8.032;2024-03-22T02:08:37;35.33;;;20.95;;
60344;SDS011;46188;52.324;8.032;2024-03-22T02:11:05;33.95;;;20.48;;
60344;SDS011;46188;52.324;8.032;2024-03-22T02:13:31;33.17;;;19.45;;
60344;SDS011;46188;52.324;8.032;2024-03-22T02:15:56;32.45;;;20.00;;
60344;SDS011;46188;52.324;8.032;2024-03-22T02:18:22;32.35;;;19.77;;
60344;SDS011;46188;52.324;8.032;2024-03-22T02:20:47;32.33;;;20.33;;
60344;SDS011;46188;52.324;8.032;2024-03-22T02:23:12;37.50;;;21.48;;
60344;SDS011;46188;52.324;8.032;2024-03-22T02:25:38;33.75;;;20.45;;
60344;SDS011;46188;52.324;8.032;2024-03-22T02:28:03;34.28;;;21.73;;
60344;SDS011;46188;52.324;8.032;2024-03-22T02:30:28;32.65;;;20.20;;
60344;SDS011;46188;52.324;8.032;2024-03-22T02:32:54;35.25;;;21.00;;
60344;SDS011;46188;52.324;8.032;2024-03-22T02:35:19;31.45;;;19.77;;
60344;SDS011;46188;52.324;8.032;2024-03-22T02:37:44;34.40;;;19.60;;
60344;SDS011;46188;52.324;8.032;2024-03-22T02:40:10;32.08;;;19.42;;
60344;SDS011;46188;52.324;8.032;2024-03-22T02:42:35;37.47;;;21.52;;
60344;SDS011;46188;52.324;8.032;2024-03-22T02:45:01;34.60;;;20.50;;
60344;SDS011;46188;52.324;8.032;2024-03-22T02:47:26;32.15;;;19.15;;
60344;SDS011;46188;52.324;8.032;2024-03-22T02:49:51;39.22;;;21.02;;
60344;SDS011;46188;52.324;8.032;2024-03-22T02:52:16;35.50;;;19.13;;
60344;SDS011;46188;52.324;8.032;2024-03-22T02:54:42;35.65;;;19.92;;
60344;SDS011;46188;52.324;8.032;2024-03-22T02:57:07;35.80;;;20.65;;
60344;SDS011;46188;52.324;8.032;2024-03-22T02:59:32;34.17;;;20.25;;
60344;SDS011;46188;52.324;8.032;2024-03-22T03:01:57;35.40;;;20.23;;
60344;SDS011;46188;52.324;8.032;2024-03-22T03:04:23;35.75;;;21.23;;
60344;SDS011;46188;52.324;8.032;2024-03-22T03:06:48;32.88;;;20.80;;
60344;SDS011;46188;52.324;8.032;2024-03-22T03:09:13;32.65;;;20.23;;
60344;SDS011;46188;52.324;8.032;2024-03-22T03:11:39;36.17;;;20.63;;
60344;SDS011;46188;52.324;8.032;2024-03-22T03:14:04;36.25;;;21.90;;
60344;SDS011;46188;52.324;8.032;2024-03-22T03:16:30;34.20;;;20.85;;
60344;SDS011;46188;52.324;8.032;2024-03-22T03:18:55;37.20;;;21.95;;
60344;SDS011;46188;52.324;8.032;2024-03-22T03:21:20;33.00;;;19.98;;
60344;SDS011;46188;52.324;8.032;2024-03-22T03:23:46;37.58;;;21.05;;
60344;SDS011;46188;52.324;8.032;2024-03-22T03:26:11;35.50;;;20.92;;
60344;SDS011;46188;52.324;8.032;2024-03-22T03:28:36;38.85;;;21.33;;
60344;SDS011;46188;52.324;8.032;2024-03-22T03:31:01;32.42;;;19.20;;
60344;SDS011;46188;52.324;8.032;2024-03-22T03:33:27;33.15;;;19.48;;
60344;SDS011;46188;52.324;8.032;2024-03-22T03:35:52;37.40;;;20.23;;
60344;SDS011;46188;52.324;8.032;2024-03-22T03:38:17;38.58;;;20.60;;
60344;SDS011;46188;52.324;8.032;2024-03-22T03:40:42;34.95;;;19.60;;
60344;SDS011;46188;52.324;8.032;2024-03-22T03:43:08;34.75;;;20.50;;
60344;SDS011;46188;52.324;8.032;2024-03-22T03:45:35;35.13;;;20.15;;
60344;SDS011;46188;52.324;8.032;2024-03-22T03:48:02;35.90;;;20.65;;
60344;SDS011;46188;52.324;8.032;2024-03-22T03:50:27;39.42;;;21.38;;
60344;SDS011;46188;52.324;8.032;2024-03-22T03:52:53;36.20;;;20.77;;
60344;SDS011;46188;52.324;8.032;2024-03-22T03:55:18;37.70;;;20.10;;
60344;SDS011;46188;52.324;8.032;2024-03-22T03:57:43;37.83;;;19.77;;
60344;SDS011;46188;52.324;8.032;2024-03-22T04:00:08;40.08;;;21.20;;
60344;SDS011;46188;52.324;8.032;2024-03-22T04:02:34;35.28;;;19.65;;
60344;SDS011;46188;52.324;8.032;2024-03-22T04:04:59;37.08;;;20.00;;
60344;SDS011;46188;52.324;8.032;2024-03-22T04:07:24;37.60;;;20.50;;
60344;SDS011;46188;52.324;8.032;2024-03-22T04:09:50;39.13;;;20.38;;
60344;SDS011;46188;52.324;8.032;2024-03-22T04:12:15;37.40;;;22.23;;
60344;SDS011;46188;52.324;8.032;2024-03-22T04:14:41;40.75;;;21.17;;
60344;SDS011;46188;52.324;8.032;2024-03-22T04:17:06;32.33;;;19.63;;
60344;SDS011;46188;52.324;8.032;2024-03-22T04:19:31;36.45;;;20.33;;
60344;SDS011;46188;52.324;8.032;2024-03-22T04:21:56;37.53;;;20.25;;
60344;SDS011;46188;52.324;8.032;2024-03-22T04:24:22;39.05;;;20.85;;
60344;SDS011;46188;52.324;8.032;2024-03-22T04:26:47;38.42;;;20.05;;
60344;SDS011;46188;52.324;8.032;2024-03-22T04:29:13;37.78;;;18.75;;
60344;SDS011;46188;52.324;8.032;2024-03-22T04:31:38;33.97;;;20.23;;
60344;SDS011;46188;52.324;8.032;2024-03-22T04:34:04;35.03;;;20.10;;
60344;SDS011;46188;52.324;8.032;2024-03-22T04:36:32;37.55;;;19.25;;
60344;SDS011;46188;52.324;8.032;2024-03-22T04:38:57;35.50;;;20.73;;
60344;SDS011;46188;52.324;8.032;2024-03-22T04:41:23;40.47;;;19.38;;
60344;SDS011;46188;52.324;8.032;2024-03-22T04:43:48;38.30;;;20.70;;
60344;SDS011;46188;52.324;8.032;2024-03-22T04:46:13;35.50;;;19.33;;
60344;SDS011;46188;52.324;8.032;2024-03-22T04:48:38;32.20;;;19.40;;
60344;SDS011;46188;52.324;8.032;2024-03-22T04:51:04;36.10;;;20.08;;
60344;SDS011;46188;52.324;8.032;2024-03-22T04:53:29;37.55;;;19.77;;
60344;SDS011;46188;52.324;8.032;2024-03-22T04:55:54;36.78;;;19.17;;
60344;SDS011;46188;52.324;8.032;2024-03-22T04:58:20;35.17;;;19.38;;
60344;SDS011;46188;52.324;8.032;2024-03-22T05:00:46;39.17;;;19.63;;
60344;SDS011;46188;52.324;8.032;2024-03-22T05:03:13;33.05;;;18.75;;
60344;SDS011;46188;52.324;8.032;2024-03-22T05:05:38;40.20;;;19.92;;
60344;SDS011;46188;52.324;8.032;2024-03-22T05:08:04;32.83;;;19.10;;
60344;SDS011;46188;52.324;8.032;2024-03-22T05:10:30;35.72;;;18.05;;
60344;SDS011;46188;52.324;8.032;2024-03-22T05:12:56;37.42;;;19.98;;
60344;SDS011;46188;52.324;8.032;2024-03-22T05:15:22;38.10;;;19.13;;
60344;SDS011;46188;52.324;8.032;2024-03-22T05:17:48;38.70;;;19.30;;
60344;SDS011;46188;52.324;8.032;2024-03-22T05:20:13;36.92;;;19.77;;
60344;SDS011;46188;52.324;8.032;2024-03-22T05:22:39;34.72;;;18.58;;
60344;SDS011;46188;52.324;8.032;2024-03-22T05:25:05;36.17;;;19.02;;
60344;SDS011;46188;52.324;8.032;2024-03-22T05:27:30;36.53;;;19.42;;
60344;SDS011;46188;52.324;8.032;2024-03-22T05:29:57;34.15;;;18.38;;
60344;SDS011;46188;52.324;8.032;2024-03-22T05:32:22;35.65;;;19.00;;
60344;SDS011;46188;52.324;8.032;2024-03-22T05:34:47;39.85;;;19.73;;
60344;SDS011;46188;52.324;8.032;2024-03-22T05:37:13;34.78;;;19.23;;
60344;SDS011;46188;52.324;8.032;2024-03-22T05:39:38;37.17;;;18.20;;
60344;SDS011;46188;52.324;8.032;2024-03-22T05:42:05;32.47;;;17.95;;
60344;SDS011;46188;52.324;8.032;2024-03-22T05:44:30;37.85;;;18.65;;
60344;SDS011;46188;52.324;8.032;2024-03-22T05:46:56;36.22;;;19.75;;
60344;SDS011;46188;52.324;8.032;2024-03-22T05:49:21;33.50;;;19.08;;
60344;SDS011;46188;52.324;8.032;2024-03-22T05:51:46;34.53;;;19.05;;
60344;SDS011;46188;52.324;8.032;2024-03-22T05:54:12;42.80;;;20.88;;
60344;SDS011;46188;52.324;8.032;2024-03-22T05:56:37;35.92;;;19.33;;
60344;SDS011;46188;52.324;8.032;2024-03-22T05:59:02;34.75;;;19.02;;
60344;SDS011;46188;52.324;8.032;2024-03-22T06:01:28;33.58;;;18.58;;
60344;SDS011;46188;52.324;8.032;2024-03-22T06:03:53;35.10;;;18.45;;
60344;SDS011;46188;52.324;8.032;2024-03-22T06:06:18;37.25;;;19.95;;
60344;SDS011;46188;52.324;8.032;2024-03-22T06:08:44;36.33;;;19.13;;
60344;SDS011;46188;52.324;8.032;2024-03-22T06:11:10;34.67;;;18.85;;
60344;SDS011;46188;52.324;8.032;2024-03-22T06:13:35;36.47;;;19.65;;
60344;SDS011;46188;52.324;8.032;2024-03-22T06:16:01;35.50;;;18.00;;
60344;SDS011;46188;52.324;8.032;2024-03-22T06:18:27;32.83;;;18.35;;
60344;SDS011;46188;52.324;8.032;2024-03-22T06:20:52;36.63;;;17.85;;
60344;SDS011;46188;52.324;8.032;2024-03-22T06:23:19;33.13;;;17.85;;
60344;SDS011;46188;52.324;8.032;2024-03-22T06:25:52;35.60;;;19.02;;
60344;SDS011;46188;52.324;8.032;2024-03-22T06:28:20;40.10;;;19.52;;
60344;SDS011;46188;52.324;8.032;2024-03-22T06:30:45;31.05;;;18.05;;
60344;SDS011;46188;52.324;8.032;2024-03-22T06:33:11;32.50;;;18.48;;
60344;SDS011;46188;52.324;8.032;2024-03-22T06:35:36;35.92;;;17.75;;
60344;SDS011;46188;52.324;8.032;2024-03-22T06:38:01;33.70;;;19.35;;
60344;SDS011;46188;52.324;8.032;2024-03-22T06:40:27;35.45;;;17.65;;
60344;SDS011;46188;52.324;8.032;2024-03-22T06:42:53;28.90;;;17.35;;
60344;SDS011;46188;52.324;8.032;2024-03-22T06:45:19;33.60;;;18.92;;
60344;SDS011;46188;52.324;8.032;2024-03-22T06:47:44;32.47;;;18.42;;
60344;SDS011;46188;52.324;8.032;2024-03-22T06:50:10;35.63;;;18.80;;
60344;SDS011;46188;52.324;8.032;2024-03-22T06:52:36;35.05;;;18.73;;
60344;SDS011;46188;52.324;8.032;2024-03-22T06:55:01;33.03;;;17.42;;
60344;SDS011;46188;52.324;8.032;2024-03-22T06:57:26;36.13;;;19.38;;
60344;SDS011;46188;52.324;8.032;2024-03-22T06:59:52;33.90;;;19.27;;
60344;SDS011;46188;52.324;8.032;2024-03-22T07:02:17;31.65;;;18.63;;
60344;SDS011;46188;52.324;8.032;2024-03-22T07:04:43;34.22;;;19.58;;
60344;SDS011;46188;52.324;8.032;2024-03-22T07:07:08;36.58;;;19.38;;
60344;SDS011;46188;52.324;8.032;2024-03-22T07:09:34;35.33;;;19.02;;
60344;SDS011;46188;52.324;8.032;2024-03-22T07:11:59;33.42;;;18.20;;
60344;SDS011;46188;52.324;8.032;2024-03-22T07:14:24;33.08;;;19.67;;
60344;SDS011;46188;52.324;8.032;2024-03-22T07:16:50;39.22;;;20.20;;
60344;SDS011;46188;52.324;8.032;2024-03-22T07:19:18;32.60;;;19.50;;
60344;SDS011;46188;52.324;8.032;2024-03-22T07:21:43;31.20;;;19.17;;
60344;SDS011;46188;52.324;8.032;2024-03-22T07:24:08;31.52;;;19.70;;
60344;SDS011;46188;52.324;8.032;2024-03-22T07:26:33;35.45;;;20.67;;
60344;SDS011;46188;52.324;8.032;2024-03-22T07:28:59;34.92;;;19.98;;
60344;SDS011;46188;52.324;8.032;2024-03-22T07:31:24;32.90;;;18.77;;
60344;SDS011;46188;52.324;8.032;2024-03-22T07:33:49;32.80;;;20.83;;
60344;SDS011;46188;52.324;8.032;2024-03-22T07:36:15;33.95;;;20.30;;
60344;SDS011;46188;52.324;8.032;2024-03-22T07:38:41;32.58;;;20.50;;
60344;SDS011;46188;52.324;8.032;2024-03-22T07:41:06;30.30;;;18.55;;
60344;SDS011;46188;52.324;8.032;2024-03-22T07:43:32;34.80;;;19.00;;
60344;SDS011;46188;52.324;8.032;2024-03-22T07:45:57;29.88;;;17.83;;
60344;SDS011;46188;52.324;8.032;2024-03-22T07:48:22;32.83;;;19.38;;
60344;SDS011;46188;52.324;8.032;2024-03-22T07:50:55;28.23;;;18.48;;
60344;SDS011;46188;52.324;8.032;2024-03-22T07:53:21;34.55;;;19.63;;
60344;SDS011;46188;52.324;8.032;2024-03-22T07:55:46;38.47;;;21.67;;
60344;SDS011;46188;52.324;8.032;2024-03-22T07:58:12;31.65;;;19.85;;
60344;SDS011;46188;52.324;8.032;2024-03-22T08:00:37;31.30;;;20.02;;
60344;SDS011;46188;52.324;8.032;2024-03-22T08:03:02;31.95;;;19.90;;
60344;SDS011;46188;52.324;8.032;2024-03-22T08:05:28;31.30;;;20.55;;
60344;SDS011;46188;52.324;8.032;2024-03-22T08:07:53;35.00;;;18.77;;
60344;SDS011;46188;52.324;8.032;2024-03-22T08:10:19;31.63;;;18.70;;
60344;SDS011;46188;52.324;8.032;2024-03-22T08:12:44;32.30;;;20.30;;
60344;SDS011;46188;52.324;8.032;2024-03-22T08:15:09;30.33;;;18.17;;
60344;SDS011;46188;52.324;8.032;2024-03-22T08:17:35;30.67;;;18.48;;
60344;SDS011;46188;52.324;8.032;2024-03-22T08:20:00;32.35;;;19.40;;
60344;SDS011;46188;52.324;8.032;2024-03-22T08:22:25;30.55;;;18.77;;
60344;SDS011;46188;52.324;8.032;2024-03-22T08:24:51;28.50;;;18.65;;
60344;SDS011;46188;52.324;8.032;2024-03-22T08:27:16;31.85;;;21.00;;
60344;SDS011;46188;52.324;8.032;2024-03-22T08:29:42;33.28;;;20.15;;
60344;SDS011;46188;52.324;8.032;2024-03-22T08:32:08;34.53;;;24.20;;
60344;SDS011;46188;52.324;8.032;2024-03-22T08:34:34;36.60;;;25.05;;
60344;SDS011;46188;52.324;8.032;2024-03-22T08:36:59;29.48;;;22.95;;
60344;SDS011;46188;52.324;8.032;2024-03-22T08:39:24;33.05;;;23.02;;
60344;SDS011;46188;52.324;8.032;2024-03-22T08:41:50;38.78;;;34.90;;
60344;SDS011;46188;52.324;8.032;2024-03-22T08:44:16;53.80;;;48.63;;
60344;SDS011;46188;52.324;8.032;2024-03-22T08:46:41;72.95;;;67.25;;
60344;SDS011;46188;52.324;8.032;2024-03-22T08:49:07;45.42;;;41.15;;
60344;SDS011;46188;52.324;8.032;2024-03-22T08:51:32;42.30;;;37.92;;
60344;SDS011;46188;52.324;8.032;2024-03-22T08:53:57;88.20;;;82.25;;
60344;SDS011;46188;52.324;8.032;2024-03-22T08:56:22;47.25;;;42.95;;
60344;SDS011;46188;52.324;8.032;2024-03-22T08:58:47;59.38;;;53.92;;
60344;SDS011;46188;52.324;8.032;2024-03-22T09:01:13;41.45;;;37.53;;
60344;SDS011;46188;52.324;8.032;2024-03-22T09:03:38;47.17;;;42.95;;
60344;SDS011;46188;52.324;8.032;2024-03-22T09:06:04;43.38;;;39.55;;
60344;SDS011;46188;52.324;8.032;2024-03-22T09:08:29;60.65;;;55.95;;
60344;SDS011;46188;52.324;8.032;2024-03-22T09:10:55;74.10;;;68.32;;
60344;SDS011;46188;52.324;8.032;2024-03-22T09:13:20;48.22;;;43.92;;
60344;SDS011;46188;52.324;8.032;2024-03-22T09:15:45;75.93;;;70.00;;
60344;SDS011;46188;52.324;8.032;2024-03-22T09:18:10;105.80;;;95.20;;
60344;SDS011;46188;52.324;8.032;2024-03-22T09:20:36;65.75;;;60.70;;
60344;SDS011;46188;52.324;8.032;2024-03-22T09:23:01;77.60;;;71.82;;
60344;SDS011;46188;52.324;8.032;2024-03-22T09:25:27;68.60;;;63.45;;
60344;SDS011;46188;52.324;8.032;2024-03-22T09:27:52;52.72;;;48.22;;
60344;SDS011;46188;52.324;8.032;2024-03-22T09:30:18;57.05;;;52.47;;
60344;SDS011;46188;52.324;8.032;2024-03-22T09:32:43;103.15;;;96.82;;
60344;SDS011;46188;52.324;8.032;2024-03-22T09:35:09;210.88;;;198.50;;
60344;SDS011;46188;52.324;8.032;2024-03-22T09:37:34;124.75;;;117.03;;
60344;SDS011;46188;52.324;8.032;2024-03-22T09:40:00;157.63;;;148.85;;
60344;SDS011;46188;52.324;8.032;2024-03-22T09:42:25;260.58;;;246.07;;
60344;SDS011;46188;52.324;8.032;2024-03-22T09:44:54;183.50;;;169.48;;
60344;SDS011;46188;52.324;8.032;2024-03-22T09:47:20;166.80;;;157.73;;
60344;SDS011;46188;52.324;8.032;2024-03-22T09:49:46;134.30;;;125.78;;
60344;SDS011;46188;52.324;8.032;2024-03-22T09:52:13;88.93;;;83.18;;
60344;SDS011;46188;52.324;8.032;2024-03-22T09:54:42;110.82;;;103.10;;
60344;SDS011;46188;52.324;8.032;2024-03-22T09:57:09;101.80;;;95.55;;
60344;SDS011;46188;52.324;8.032;2024-03-22T09:59:42;141.35;;;133.02;;
60344;SDS011;46188;52.324;8.032;2024-03-22T10:02:11;122.30;;;114.95;;
60344;SDS011;46188;52.324;8.032;2024-03-22T10:04:38;133.40;;;125.90;;
60344;SDS011;46188;52.324;8.032;2024-03-22T10:07:05;183.30;;;173.38;;
60344;SDS011;46188;52.324;8.032;2024-03-22T10:09:31;94.90;;;89.07;;
60344;SDS011;46188;52.324;8.032;2024-03-22T10:11:57;328.30;;;309.80;;
60344;SDS011;46188;52.324;8.032;2024-03-22T10:14:22;162.27;;;153.38;;
60344;SDS011;46188;52.324;8.032;2024-03-22T10:16:50;128.93;;;121.53;;
60344;SDS011;46188;52.324;8.032;2024-03-22T10:19:18;29.75;;;21.23;;
60344;SDS011;46188;52.324;8.032;2024-03-22T10:21:44;27.63;;;20.42;;
60344;SDS011;46188;52.324;8.032;2024-03-22T10:24:09;23.95;;;19.90;;
60344;SDS011;46188;52.324;8.032;2024-03-22T10:26:34;25.58;;;20.02;;
60344;SDS011;46188;52.324;8.032;2024-03-22T10:29:06;23.88;;;20.40;;
60344;SDS011;46188;52.324;8.032;2024-03-22T10:31:39;25.33;;;20.33;;
60344;SDS011;46188;52.324;8.032;2024-03-22T10:34:04;23.60;;;19.35;;
60344;SDS011;46188;52.324;8.032;2024-03-22T10:36:31;23.63;;;18.90;;
60344;SDS011;46188;52.324;8.032;2024-03-22T10:38:58;23.63;;;18.95;;
60344;SDS011;46188;52.324;8.032;2024-03-22T10:41:24;19.48;;;17.38;;
60344;SDS011;46188;52.324;8.032;2024-03-22T10:43:50;24.05;;;17.60;;
60344;SDS011;46188;52.324;8.032;2024-03-22T10:46:15;23.10;;;17.80;;
60344;SDS011;46188;52.324;8.032;2024-03-22T10:48:44;22.92;;;17.58;;
60344;SDS011;46188;52.324;8.032;2024-03-22T10:51:10;21.98;;;16.88;;
60344;SDS011;46188;52.324;8.032;2024-03-22T10:53:36;19.45;;;16.85;;
60344;SDS011;46188;52.324;8.032;2024-03-22T10:56:06;23.33;;;17.83;;
60344;SDS011;46188;52.324;8.032;2024-03-22T10:58:34;20.00;;;17.70;;
60344;SDS011;46188;52.324;8.032;2024-03-22T11:01:11;22.15;;;18.15;;
60344;SDS011;46188;52.324;8.032;2024-03-22T11:04:05;22.50;;;17.90;;
60344;SDS011;46188;52.324;8.032;2024-03-22T11:06:38;21.55;;;17.70;;
60344;SDS011;46188;52.324;8.032;2024-03-22T11:09:08;22.38;;;17.75;;
60344;SDS011;46188;52.324;8.032;2024-03-22T11:11:35;23.42;;;17.48;;
60344;SDS011;46188;52.324;8.032;2024-03-22T11:14:02;24.45;;;18.65;;
60344;SDS011;46188;52.324;8.032;2024-03-22T11:16:31;23.60;;;17.55;;
60344;SDS011;46188;52.324;8.032;2024-03-22T11:18:56;22.40;;;17.58;;
60344;SDS011;46188;52.324;8.032;2024-03-22T11:21:22;20.95;;;17.17;;
60344;SDS011;46188;52.324;8.032;2024-03-22T11:23:48;24.20;;;17.23;;
60344;SDS011;46188;52.324;8.032;2024-03-22T11:26:13;19.77;;;16.92;;
60344;SDS011;46188;52.324;8.032;2024-03-22T11:28:39;24.27;;;17.40;;
60344;SDS011;46188;52.324;8.032;2024-03-22T11:31:05;21.17;;;17.45;;
60344;SDS011;46188;52.324;8.032;2024-03-22T11:33:30;20.33;;;16.92;;
60344;SDS011;46188;52.324;8.032;2024-03-22T11:35:58;22.83;;;17.65;;
60344;SDS011;46188;52.324;8.032;2024-03-22T11:38:27;27.67;;;16.75;;
60344;SDS011;46188;52.324;8.032;2024-03-22T11:40:52;21.15;;;16.58;;
60344;SDS011;46188;52.324;8.032;2024-03-22T11:43:19;22.85;;;15.85;;
60344;SDS011;46188;52.324;8.032;2024-03-22T11:45:45;18.95;;;16.27;;
60344;SDS011;46188;52.324;8.032;2024-03-22T11:48:11;22.73;;;15.93;;
60344;SDS011;46188;52.324;8.032;2024-03-22T11:50:37;21.80;;;15.65;;
60344;SDS011;46188;52.324;8.032;2024-03-22T11:53:04;17.52;;;13.70;;
60344;SDS011;46188;52.324;8.032;2024-03-22T11:55:35;18.63;;;15.57;;
60344;SDS011;46188;52.324;8.032;2024-03-22T11:58:01;23.08;;;15.40;;
60344;SDS011;46188;52.324;8.032;2024-03-22T12:00:27;26.77;;;15.10;;
60344;SDS011;46188;52.324;8.032;2024-03-22T12:02:52;23.95;;;15.48;;
60344;SDS011;46188;52.324;8.032;2024-03-22T12:05:18;20.58;;;15.18;;
60344;SDS011;46188;52.324;8.032;2024-03-22T12:07:45;20.42;;;15.50;;
60344;SDS011;46188;52.324;8.032;2024-03-22T12:10:10;19.70;;;14.27;;
60344;SDS011;46188;52.324;8.032;2024-03-22T12:12:38;22.48;;;15.20;;
60344;SDS011;46188;52.324;8.032;2024-03-22T12:15:04;20.45;;;15.63;;
60344;SDS011;46188;52.324;8.032;2024-03-22T12:17:29;18.23;;;13.95;;
60344;SDS011;46188;52.324;8.032;2024-03-22T12:19:55;20.25;;;14.55;;
60344;SDS011;46188;52.324;8.032;2024-03-22T12:25:55;18.50;;;13.23;;
60344;SDS011;46188;52.324;8.032;2024-03-22T12:28:21;21.92;;;13.85;;
60344;SDS011;46188;52.324;8.032;2024-03-22T12:30:47;20.05;;;13.40;;
60344;SDS011;46188;52.324;8.032;2024-03-22T12:33:14;19.40;;;14.45;;
60344;SDS011;46188;52.324;8.032;2024-03-22T12:35:40;20.23;;;13.73;;
60344;SDS011;46188;52.324;8.032;2024-03-22T12:38:05;16.48;;;12.65;;
60344;SDS011;46188;52.324;8.032;2024-03-22T12:40:32;19.05;;;13.02;;
60344;SDS011;46188;52.324;8.032;2024-03-22T12:43:00;25.77;;;13.07;;
60344;SDS011;46188;52.324;8.032;2024-03-22T12:45:25;23.40;;;11.88;;
60344;SDS011;46188;52.324;8.032;2024-03-22T12:47:51;18.73;;;12.85;;
60344;SDS011;46188;52.324;8.032;2024-03-22T12:50:26;17.23;;;12.50;;
60344;SDS011;46188;52.324;8.032;2024-03-22T12:53:03;21.02;;;13.30;;
60344;SDS011;46188;52.324;8.032;2024-03-22T12:55:33;16.52;;;11.82;;
60344;SDS011;46188;52.324;8.032;2024-03-22T12:58:16;18.10;;;12.65;;
60344;SDS011;46188;52.324;8.032;2024-03-22T13:00:41;16.95;;;11.40;;
60344;SDS011;46188;52.324;8.032;2024-03-22T13:03:06;18.50;;;12.68;;
60344;SDS011;46188;52.324;8.032;2024-03-22T13:05:38;18.17;;;12.50;;
60344;SDS011;46188;52.324;8.032;2024-03-22T13:08:04;15.55;;;11.50;;
60344;SDS011;46188;52.324;8.032;2024-03-22T13:10:30;16.17;;;11.35;;
60344;SDS011;46188;52.324;8.032;2024-03-22T13:12:57;17.92;;;12.25;;
60344;SDS011;46188;52.324;8.032;2024-03-22T13:15:22;15.18;;;11.07;;
60344;SDS011;46188;52.324;8.032;2024-03-22T13:17:48;17.58;;;11.65;;
60344;SDS011;46188;52.324;8.032;2024-03-22T13:20:15;16.75;;;12.50;;
60344;SDS011;46188;52.324;8.032;2024-03-22T13:22:43;17.05;;;10.35;;
60344;SDS011;46188;52.324;8.032;2024-03-22T13:25:08;18.13;;;11.55;;
60344;SDS011;46188;52.324;8.032;2024-03-22T13:27:35;20.58;;;10.98;;
60344;SDS011;46188;52.324;8.032;2024-03-22T13:30:01;15.05;;;10.23;;
60344;SDS011;46188;52.324;8.032;2024-03-22T13:32:27;15.50;;;11.45;;
60344;SDS011;46188;52.324;8.032;2024-03-22T13:34:54;15.88;;;11.63;;
60344;SDS011;46188;52.324;8.032;2024-03-22T13:37:19;14.40;;;11.05;;
60344;SDS011;46188;52.324;8.032;2024-03-22T13:39:48;16.50;;;11.18;;
60344;SDS011;46188;52.324;8.032;2024-03-22T13:42:16;13.40;;;10.80;;
60344;SDS011;46188;52.324;8.032;2024-03-22T13:44:42;14.15;;;10.70;;
60344;SDS011;46188;52.324;8.032;2024-03-22T13:47:08;12.45;;;10.77;;
60344;SDS011;46188;52.324;8.032;2024-03-22T13:49:33;14.35;;;10.20;;
60344;SDS011;46188;52.324;8.032;2024-03-22T13:51:58;13.43;;;10.35;;
60344;SDS011;46188;52.324;8.032;2024-03-22T13:54:24;12.55;;;10.50;;
60344;SDS011;46188;52.324;8.032;2024-03-22T13:56:49;15.02;;;10.25;;
60344;SDS011;46188;52.324;8.032;2024-03-22T13:59:15;12.13;;;10.05;;
60344;SDS011;46188;52.324;8.032;2024-03-22T14:01:41;15.10;;;11.05;;
60344;SDS011;46188;52.324;8.032;2024-03-22T14:04:10;15.18;;;10.32;;
60344;SDS011;46188;52.324;8.032;2024-03-22T14:06:36;12.05;;;9.63;;
60344;SDS011;46188;52.324;8.032;2024-03-22T14:09:02;12.73;;;10.15;;
60344;SDS011;46188;52.324;8.032;2024-03-22T14:11:29;11.68;;;9.27;;
60344;SDS011;46188;52.324;8.032;2024-03-22T14:13:55;16.67;;;10.77;;
60344;SDS011;46188;52.324;8.032;2024-03-22T14:16:22;15.48;;;9.95;;
60344;SDS011;46188;52.324;8.032;2024-03-22T14:18:50;15.63;;;10.45;;